Time;durP1;ratioP1;P1;durP2;ratioP2;P2;SDS_P1;SDS_P2;PMS_P1;PMS_P2;Temp;Humidity;BMP_temperature;BMP_pressure;BME280_temperature;BME280_humidity;BME280_pressure;Samples;Min_cycle;Max_cycle;Signal;HPM_P1;HPM_P2
2021/07/04 00:00:14;;;;;;;;;;;21.30;70.10;;;;;;5012218;28;1152;-67
2021/07/04 00:02:39;;;;;;;;;;;21.40;70.20;;;;;;4994790;28;1165;-66
2021/07/04 00:05:05;;;;;;;;;;;21.30;70.20;;;;;;5011754;28;1220;-66
2021/07/04 00:07:31;;;;;;;;;;;21.30;69.90;;;;;;5012146;28;1089;-66
2021/07/04 00:09:56;;;;;;;;;;;21.30;70.10;;;;;;5012149;28;1089;-65
2021/07/04 00:12:21;;;;;;;;;;;21.30;70.10;;;;;;4998394;28;1898;-66
2021/07/04 00:17:15;;;;;;;;;;;21.30;69.90;;;;;;5007713;28;2200;-72
2021/07/04 00:19:42;;;;;;;;;;;21.30;69.80;;;;;;5012525;28;1368;-73
2021/07/04 00:22:08;;;;;;;;;;;21.30;70.00;;;;;;5012042;28;1475;-73
2021/07/04 00:24:33;;;;;;;;;;;21.30;69.90;;;;;;5011252;28;1344;-72
2021/07/04 00:26:59;;;;;;;;;;;21.30;70.00;;;;;;4993134;28;1307;-72
2021/07/04 00:29:24;;;;;;;;;;;21.30;69.90;;;;;;4992853;28;1431;-71
2021/07/04 00:31:49;;;;;;;;;;;21.30;69.60;;;;;;4992547;28;1942;-73
2021/07/04 00:34:15;;;;;;;;;;;21.30;69.90;;;;;;4972630;28;1149;-74
2021/07/04 00:36:40;;;;;;;;;;;21.30;69.90;;;;;;4992257;28;1297;-72
2021/07/04 00:39:06;;;;;;;;;;;21.30;69.90;;;;;;4993694;28;1204;-71
2021/07/04 00:41:31;;;;;;;;;;;21.30;70.00;;;;;;4996073;28;1383;-72
2021/07/04 00:43:57;;;;;;;;;;;21.30;69.80;;;;;;4995527;28;1371;-71
2021/07/04 00:46:22;;;;;;;;;;;21.30;69.70;;;;;;4995832;28;1713;-77
2021/07/04 00:48:47;;;;;;;;;;;21.30;69.50;;;;;;4978928;28;887;-76
2021/07/04 00:51:13;;;;;;;;;;;21.30;69.70;;;;;;4978924;28;1957;-75
2021/07/04 00:53:39;;;;;;;;;;;21.30;69.60;;;;;;4977915;28;1212;-75
2021/07/04 00:56:04;;;;;;;;;;;21.30;69.70;;;;;;4978549;28;1331;-75
2021/07/04 00:58:30;;;;;;;;;;;21.30;69.70;;;;;;4995852;28;1648;-75
2021/07/04 01:00:55;;;;;;;;;;;21.30;69.80;;;;;;4995531;28;1145;-75
2021/07/04 01:03:21;;;;;;;;;;;21.30;69.80;;;;;;4977758;28;817;-75
2021/07/04 01:05:46;;;;;;;;;;;21.30;69.90;;;;;;4995740;28;1500;-76
2021/07/04 01:08:12;;;;;;;;;;;21.30;69.80;;;;;;4994854;28;847;-76
2021/07/04 01:10:38;;;;;;;;;;;21.30;69.70;;;;;;4995810;28;1890;-76
2021/07/04 01:13:03;;;;;;;;;;;21.30;69.70;;;;;;4977718;28;836;-76
2021/07/04 01:15:29;;;;;;;;;;;21.30;69.80;;;;;;4978359;28;1190;-76
2021/07/04 01:17:55;;;;;;;;;;;21.30;69.80;;;;;;4958824;28;1200;-76
2021/07/04 01:20:20;;;;;;;;;;;21.30;69.90;;;;;;4993151;28;1216;-76
2021/07/04 01:22:50;;;;;;;;;;;21.30;70.00;;;;;;4958659;28;1501;-76
2021/07/04 01:25:16;;;;;;;;;;;21.30;70.00;;;;;;4993620;28;1409;-75
2021/07/04 01:27:41;;;;;;;;;;;21.30;70.00;;;;;;4958406;28;1499;-75
2021/07/04 01:30:08;;;;;;;;;;;21.30;70.00;;;;;;4977815;28;1563;-76
2021/07/04 01:32:33;;;;;;;;;;;21.30;70.00;;;;;;4977428;28;1899;-75
2021/07/04 01:34:58;;;;;;;;;;;21.30;70.00;;;;;;4994379;28;1413;-75
2021/07/04 01:37:24;;;;;;;;;;;21.30;70.80;;;;;;4995091;28;1694;-75
2021/07/04 01:39:49;;;;;;;;;;;21.30;70.10;;;;;;4977356;28;1390;-75
2021/07/04 01:42:15;;;;;;;;;;;21.30;70.20;;;;;;4977621;28;1428;-75
2021/07/04 01:44:40;;;;;;;;;;;21.30;70.20;;;;;;4976797;28;1325;-77
2021/07/04 01:47:05;;;;;;;;;;;21.30;70.20;;;;;;4977746;28;923;-76
2021/07/04 01:49:31;;;;;;;;;;;21.30;70.20;;;;;;4994949;28;1228;-76
2021/07/04 01:51:56;;;;;;;;;;;21.30;70.30;;;;;;4993506;28;1898;-76
2021/07/04 01:54:22;;;;;;;;;;;21.30;70.20;;;;;;4993844;28;1191;-76
2021/07/04 01:56:47;;;;;;;;;;;21.30;70.20;;;;;;4977588;28;1173;-76
2021/07/04 01:59:13;;;;;;;;;;;21.30;70.20;;;;;;4994810;28;1187;-76
2021/07/04 02:01:38;;;;;;;;;;;21.30;70.20;;;;;;4961075;28;876;-72
2021/07/04 02:04:03;;;;;;;;;;;21.30;70.20;;;;;;4993836;28;1645;-72
2021/07/04 02:06:29;;;;;;;;;;;21.30;70.30;;;;;;4993285;28;1661;-72
2021/07/04 02:08:54;;;;;;;;;;;21.30;70.30;;;;;;4976678;28;1365;-72
2021/07/04 02:11:20;;;;;;;;;;;21.30;70.30;;;;;;4994252;28;1902;-72
2021/07/04 02:13:45;;;;;;;;;;;21.30;70.30;;;;;;4993820;28;1717;-72
2021/07/04 02:16:11;;;;;;;;;;;21.30;70.40;;;;;;4993927;28;1662;-72
2021/07/04 02:18:36;;;;;;;;;;;21.30;70.40;;;;;;4994618;28;1413;-72
2021/07/04 02:21:01;;;;;;;;;;;21.30;70.40;;;;;;4976954;28;1446;-72
2021/07/04 02:23:30;;;;;;;;;;;21.30;70.40;;;;;;4975629;28;1702;-74
2021/07/04 02:25:56;;;;;;;;;;;21.30;70.40;;;;;;4976791;28;1341;-74
2021/07/04 02:28:22;;;;;;;;;;;21.30;70.50;;;;;;4971892;28;1515;-75
2021/07/04 02:30:48;;;;;;;;;;;21.30;70.40;;;;;;4972408;28;1965;-74
2021/07/04 02:33:13;;;;;;;;;;;21.30;70.50;;;;;;4982726;28;1150;-73
2021/07/04 02:35:40;;;;;;;;;;;21.30;70.50;;;;;;4984015;28;1381;-75
2021/07/04 02:38:05;;;;;;;;;;;21.30;70.50;;;;;;4986479;28;1223;-75
2021/07/04 02:40:31;;;;;;;;;;;21.30;70.50;;;;;;4992330;28;1395;-73
2021/07/04 02:42:57;;;;;;;;;;;21.30;70.60;;;;;;4993016;28;1500;-72
2021/07/04 02:45:22;;;;;;;;;;;21.30;70.60;;;;;;4992866;28;1330;-76
2021/07/04 02:47:48;;;;;;;;;;;21.30;70.60;;;;;;4976555;28;883;-76
2021/07/04 02:50:13;;;;;;;;;;;21.30;70.60;;;;;;4993947;28;778;-75
2021/07/04 02:52:39;;;;;;;;;;;21.30;70.60;;;;;;4976254;28;1987;-76
2021/07/04 02:55:05;;;;;;;;;;;21.30;70.60;;;;;;4956412;28;1323;-73
2021/07/04 02:57:30;;;;;;;;;;;21.30;70.70;;;;;;4990551;28;1792;-72
2021/07/04 02:59:55;;;;;;;;;;;21.30;71.40;;;;;;4993236;28;1431;-73
2021/07/04 03:02:21;;;;;;;;;;;21.30;70.60;;;;;;4993392;28;1496;-72
2021/07/04 03:04:47;;;;;;;;;;;21.30;70.70;;;;;;4975464;28;1423;-73
2021/07/04 03:07:13;;;;;;;;;;;21.30;70.80;;;;;;4975237;28;1125;-73
2021/07/04 03:09:40;;;;;;;;;;;21.30;70.70;;;;;;4993211;28;1042;-73
2021/07/04 03:12:05;;;;;;;;;;;21.30;70.70;;;;;;4992988;28;1906;-73
2021/07/04 03:14:31;;;;;;;;;;;21.30;70.80;;;;;;4992900;28;1132;-73
2021/07/04 03:16:56;;;;;;;;;;;21.30;70.80;;;;;;4973522;28;1419;-73
2021/07/04 03:19:22;;;;;;;;;;;21.30;70.80;;;;;;4993046;28;1089;-73
2021/07/04 03:21:47;;;;;;;;;;;21.20;70.70;;;;;;4992534;28;1153;-72
2021/07/04 03:24:12;;;;;;;;;;;21.30;70.80;;;;;;4992496;28;1046;-72
2021/07/04 03:26:38;;;;;;;;;;;21.30;70.80;;;;;;4992676;28;1362;-72
2021/07/04 03:29:03;;;;;;;;;;;21.20;70.80;;;;;;4959390;28;1267;-73
2021/07/04 03:31:29;;;;;;;;;;;21.20;70.80;;;;;;4993231;28;1980;-72
2021/07/04 03:33:54;;;;;;;;;;;21.20;70.70;;;;;;4991983;28;1073;-72
2021/07/04 03:36:19;;;;;;;;;;;21.20;70.80;;;;;;4992621;28;1387;-73
2021/07/04 03:38:45;;;;;;;;;;;21.20;70.80;;;;;;4992299;28;1065;-73
2021/07/04 03:41:10;;;;;;;;;;;21.20;70.80;;;;;;4992897;28;1259;-73
2021/07/04 03:43:36;;;;;;;;;;;21.20;70.80;;;;;;4992246;28;1110;-73
2021/07/04 03:46:01;;;;;;;;;;;21.20;70.80;;;;;;4992516;28;1338;-73
2021/07/04 03:48:27;;;;;;;;;;;21.20;70.70;;;;;;4992680;28;1081;-72
2021/07/04 03:50:52;;;;;;;;;;;21.20;70.70;;;;;;4992713;28;1967;-73
2021/07/04 03:53:17;;;;;;;;;;;21.20;70.70;;;;;;4992052;28;1129;-73
2021/07/04 03:55:43;;;;;;;;;;;21.30;70.80;;;;;;4991781;28;1377;-73
2021/07/04 03:58:09;;;;;;;;;;;21.20;70.70;;;;;;4992220;28;1129;-72
2021/07/04 04:00:34;;;;;;;;;;;21.20;70.70;;;;;;4992673;28;1101;-73
2021/07/04 04:03:00;;;;;;;;;;;21.20;70.80;;;;;;4992123;28;1145;-73
2021/07/04 04:05:25;;;;;;;;;;;21.20;70.80;;;;;;4992611;28;1245;-72
2021/07/04 04:07:51;;;;;;;;;;;21.20;70.80;;;;;;4975142;28;1043;-72
2021/07/04 04:10:16;;;;;;;;;;;21.20;70.80;;;;;;4992156;28;1062;-72
2021/07/04 04:12:42;;;;;;;;;;;21.20;70.90;;;;;;4992896;28;1962;-72
2021/07/04 04:15:08;;;;;;;;;;;21.20;70.90;;;;;;4994866;28;1640;-72
2021/07/04 04:17:33;;;;;;;;;;;21.20;70.90;;;;;;4978927;28;1117;-73
2021/07/04 04:19:59;;;;;;;;;;;21.20;70.90;;;;;;4978429;28;1043;-73
2021/07/04 04:22:24;;;;;;;;;;;21.20;71.00;;;;;;4996232;28;1133;-72
2021/07/04 04:24:49;;;;;;;;;;;21.20;71.00;;;;;;4995273;28;1341;-72
2021/07/04 04:27:15;;;;;;;;;;;21.20;71.00;;;;;;4996078;28;1124;-73
2021/07/04 04:29:40;;;;;;;;;;;21.20;71.00;;;;;;4962391;28;1204;-73
2021/07/04 04:32:06;;;;;;;;;;;21.20;71.00;;;;;;4995756;28;1898;-73
2021/07/04 04:34:31;;;;;;;;;;;21.20;71.00;;;;;;4995239;28;1094;-73
2021/07/04 04:36:58;;;;;;;;;;;21.20;71.00;;;;;;4962412;28;1299;-73
2021/07/04 04:39:23;;;;;;;;;;;21.20;71.10;;;;;;4978399;28;1055;-72
2021/07/04 04:41:49;;;;;;;;;;;21.20;71.10;;;;;;4978630;28;1543;-73
2021/07/04 04:44:14;;;;;;;;;;;21.20;71.10;;;;;;4977741;28;1125;-72
2021/07/04 04:46:39;;;;;;;;;;;21.20;71.20;;;;;;4995639;28;1177;-73
2021/07/04 04:49:05;;;;;;;;;;;21.20;71.20;;;;;;4978223;28;1074;-73
2021/07/04 04:51:30;;;;;;;;;;;21.20;71.20;;;;;;4978178;28;1907;-73
2021/07/04 04:53:56;;;;;;;;;;;21.20;71.20;;;;;;4977814;28;1042;-73
2021/07/04 04:56:21;;;;;;;;;;;21.20;71.30;;;;;;4977776;28;1193;-72
2021/07/04 04:58:47;;;;;;;;;;;21.30;71.40;;;;;;4961830;28;1217;-72
2021/07/04 05:01:12;;;;;;;;;;;21.20;71.40;;;;;;4962121;28;1090;-72
2021/07/04 05:03:37;;;;;;;;;;;21.20;71.40;;;;;;4995147;28;1156;-72
2021/07/04 05:06:03;;;;;;;;;;;21.20;71.40;;;;;;4995312;28;1198;-72
2021/07/04 05:08:30;;;;;;;;;;;21.20;71.50;;;;;;4995262;28;1085;-73
2021/07/04 05:10:55;;;;;;;;;;;21.20;71.30;;;;;;4995086;28;1969;-73
2021/07/04 05:13:20;;;;;;;;;;;21.20;71.40;;;;;;4995242;28;1144;-72
2021/07/04 05:15:46;;;;;;;;;;;21.20;71.40;;;;;;4995626;28;1137;-72
2021/07/04 05:18:11;;;;;;;;;;;21.20;71.60;;;;;;4977746;28;1149;-72
2021/07/04 05:20:37;;;;;;;;;;;21.20;71.40;;;;;;4977532;28;1156;-72
2021/07/04 05:23:02;;;;;;;;;;;21.20;71.30;;;;;;4994424;28;1152;-72
2021/07/04 05:25:28;;;;;;;;;;;21.20;71.30;;;;;;4994633;28;1369;-72
2021/07/04 05:27:53;;;;;;;;;;;21.20;71.20;;;;;;4977393;28;1169;-72
2021/07/04 05:30:18;;;;;;;;;;;21.20;71.20;;;;;;4995404;28;1086;-72
2021/07/04 05:32:44;;;;;;;;;;;21.20;71.30;;;;;;4994616;28;1906;-73
2021/07/04 05:35:10;;;;;;;;;;;21.20;71.30;;;;;;4993968;28;1281;-72
2021/07/04 05:37:35;;;;;;;;;;;21.20;71.20;;;;;;4995464;28;1030;-72
2021/07/04 05:40:03;;;;;;;;;;;21.20;71.20;;;;;;4994897;28;1177;-72
2021/07/04 05:42:28;;;;;;;;;;;21.20;71.10;;;;;;4994575;28;1082;-72
2021/07/04 05:44:54;;;;;;;;;;;21.20;71.20;;;;;;4994316;28;1263;-72
2021/07/04 05:47:19;;;;;;;;;;;21.20;71.20;;;;;;4995060;28;1085;-72
2021/07/04 05:49:45;;;;;;;;;;;21.20;71.10;;;;;;4994293;28;1121;-73
2021/07/04 05:52:10;;;;;;;;;;;21.20;71.00;;;;;;4994624;28;1902;-72
2021/07/04 05:54:36;;;;;;;;;;;21.20;71.10;;;;;;4993822;28;1291;-72
2021/07/04 05:57:05;;;;;;;;;;;21.20;71.10;;;;;;4994514;28;1171;-72
2021/07/04 05:59:34;;;;;;;;;;;21.20;71.10;;;;;;4994377;28;1137;-73
2021/07/04 06:01:59;;;;;;;;;;;21.20;71.00;;;;;;4993000;28;1360;-73
2021/07/04 06:04:25;;;;;;;;;;;21.20;70.90;;;;;;4976356;28;1078;-73
2021/07/04 06:06:52;;;;;;;;;;;21.20;71.10;;;;;;4994049;28;1280;-72
2021/07/04 06:09:17;;;;;;;;;;;21.20;71.10;;;;;;4994228;28;970;-72
2021/07/04 06:11:43;;;;;;;;;;;21.20;71.20;;;;;;4977066;28;1902;-73
2021/07/04 06:14:08;;;;;;;;;;;21.20;71.30;;;;;;4993312;28;1070;-73
2021/07/04 06:16:34;;;;;;;;;;;21.20;71.80;;;;;;4994574;28;1128;-72
2021/07/04 06:18:59;;;;;;;;;;;21.20;71.00;;;;;;4994199;28;1093;-72
2021/07/04 06:21:24;;;;;;;;;;;21.20;70.80;;;;;;4976690;28;1105;-72
2021/07/04 06:23:50;;;;;;;;;;;21.20;70.70;;;;;;4993551;28;1156;-73
2021/07/04 06:26:15;;;;;;;;;;;21.20;70.50;;;;;;4966526;28;1390;-70
2021/07/04 06:28:41;;;;;;;;;;;21.20;71.30;;;;;;4991538;28;997;-70
2021/07/04 06:31:06;;;;;;;;;;;21.20;71.50;;;;;;4974471;28;1949;-71
2021/07/04 06:33:32;;;;;;;;;;;21.20;71.00;;;;;;4987011;28;1735;-71
2021/07/04 06:35:57;;;;;;;;;;;21.20;70.80;;;;;;4982295;28;1263;-70
2021/07/04 06:38:22;;;;;;;;;;;21.20;71.20;;;;;;4991502;28;1834;-67
2021/07/04 06:40:48;;;;;;;;;;;21.20;71.00;;;;;;4992967;28;1073;-69
2021/07/04 06:43:13;;;;;;;;;;;21.20;71.00;;;;;;4991968;28;1069;-70
2021/07/04 06:45:39;;;;;;;;;;;21.20;70.80;;;;;;4992538;28;1354;-69
2021/07/04 06:48:04;;;;;;;;;;;21.20;69.90;;;;;;4990716;28;1284;-70
2021/07/04 06:50:30;;;;;;;;;;;21.20;69.50;;;;;;4974982;28;1074;-69
2021/07/04 06:52:55;;;;;;;;;;;21.20;68.80;;;;;;4992275;28;1957;-68
2021/07/04 06:55:21;;;;;;;;;;;21.30;68.50;;;;;;4959574;28;1372;-69
2021/07/04 06:57:46;;;;;;;;;;;21.30;68.60;;;;;;4992835;28;1106;-68
2021/07/04 07:00:12;;;;;;;;;;;21.30;68.60;;;;;;4993117;28;1108;-69
2021/07/04 07:02:38;;;;;;;;;;;21.30;68.10;;;;;;4975364;28;1091;-68
2021/07/04 07:05:07;;;;;;;;;;;21.30;68.30;;;;;;4992485;28;1228;-69
2021/07/04 07:07:32;;;;;;;;;;;21.30;68.30;;;;;;4993017;28;1149;-69
2021/07/04 07:09:58;;;;;;;;;;;21.40;68.00;;;;;;4975651;28;1082;-69
2021/07/04 07:12:23;;;;;;;;;;;21.40;67.40;;;;;;4992210;28;1906;-69
2021/07/04 07:14:48;;;;;;;;;;;21.40;68.40;;;;;;4975574;28;1291;-68
2021/07/04 07:17:14;;;;;;;;;;;21.40;67.40;;;;;;4975168;28;1161;-69
2021/07/04 07:19:39;;;;;;;;;;;21.40;67.40;;;;;;4975442;28;1078;-69
2021/07/04 07:22:05;;;;;;;;;;;21.40;67.90;;;;;;4975008;28;1179;-69
2021/07/04 07:24:30;;;;;;;;;;;21.40;69.40;;;;;;4992466;28;1061;-69
2021/07/04 07:26:56;;;;;;;;;;;21.40;69.10;;;;;;4992439;28;1280;-69
2021/07/04 07:29:21;;;;;;;;;;;21.40;69.10;;;;;;4992806;28;1066;-69
2021/07/04 07:31:46;;;;;;;;;;;21.40;69.20;;;;;;4991871;28;1895;-69
2021/07/04 07:34:12;;;;;;;;;;;21.30;69.20;;;;;;4992396;28;1116;-69
2021/07/04 07:36:37;;;;;;;;;;;21.40;69.40;;;;;;4975331;28;1371;-69
2021/07/04 07:39:03;;;;;;;;;;;21.40;69.60;;;;;;4992574;28;1085;-69
2021/07/04 07:41:29;;;;;;;;;;;21.40;69.40;;;;;;4975218;28;1141;-69
2021/07/04 07:43:54;;;;;;;;;;;21.40;69.50;;;;;;4992960;28;1639;-69
2021/07/04 07:46:20;;;;;;;;;;;21.40;68.60;;;;;;4992868;28;1267;-69
2021/07/04 07:48:45;;;;;;;;;;;21.40;68.80;;;;;;4993265;28;1062;-69
2021/07/04 07:51:11;;;;;;;;;;;21.40;69.00;;;;;;4996567;28;1910;-68
2021/07/04 07:53:36;;;;;;;;;;;21.40;68.30;;;;;;4978771;28;1082;-69
2021/07/04 07:56:02;;;;;;;;;;;21.40;68.30;;;;;;4979114;28;1222;-69
2021/07/04 07:58:27;;;;;;;;;;;21.40;67.50;;;;;;4997415;28;1057;-69
2021/07/04 08:00:53;;;;;;;;;;;21.40;66.80;;;;;;4996334;28;1053;-69
2021/07/04 08:03:18;;;;;;;;;;;21.50;68.00;;;;;;4978397;28;1121;-69
2021/07/04 08:05:44;;;;;;;;;;;21.50;67.30;;;;;;4996917;28;1245;-69
2021/07/04 08:08:09;;;;;;;;;;;21.50;67.10;;;;;;4996320;28;1121;-69
2021/07/04 08:10:35;;;;;;;;;;;21.50;67.00;;;;;;4996727;28;1196;-69
2021/07/04 08:13:00;;;;;;;;;;;21.50;67.00;;;;;;4995652;28;1973;-69
2021/07/04 08:15:26;;;;;;;;;;;21.60;66.10;;;;;;4978878;28;1275;-69
2021/07/04 08:17:52;;;;;;;;;;;21.60;66.90;;;;;;4996773;28;1113;-69
2021/07/04 08:20:17;;;;;;;;;;;21.60;66.90;;;;;;4996484;28;1097;-69
2021/07/04 08:22:43;;;;;;;;;;;21.60;66.60;;;;;;4996163;28;1061;-69
2021/07/04 08:25:09;;;;;;;;;;;21.60;66.40;;;;;;4967281;28;1687;-69
2021/07/04 08:27:35;;;;;;;;;;;21.60;65.80;;;;;;4994125;28;1102;-69
2021/07/04 08:30:00;;;;;;;;;;;21.60;67.00;;;;;;4993925;28;1462;-68
2021/07/04 08:32:26;;;;;;;;;;;21.60;66.90;;;;;;4995369;28;1923;-72
2021/07/04 08:34:51;;;;;;;;;;;21.60;67.20;;;;;;4977470;28;1276;-71
2021/07/04 08:37:17;;;;;;;;;;;21.60;67.00;;;;;;4995573;28;1074;-71
2021/07/04 08:39:42;;;;;;;;;;;21.60;66.90;;;;;;4995075;28;1158;-72
2021/07/04 08:42:08;;;;;;;;;;;21.60;66.50;;;;;;4993916;28;1273;-71
2021/07/04 08:44:33;;;;;;;;;;;21.60;67.00;;;;;;4994379;28;1021;-71
2021/07/04 08:46:59;;;;;;;;;;;21.60;67.00;;;;;;4977928;28;1598;-71
2021/07/04 08:49:25;;;;;;;;;;;21.60;66.80;;;;;;4961822;28;1362;-72
2021/07/04 08:51:50;;;;;;;;;;;21.60;67.60;;;;;;4996082;28;1899;-71
2021/07/04 08:54:16;;;;;;;;;;;21.60;67.40;;;;;;4993991;28;1113;-71
2021/07/04 08:56:41;;;;;;;;;;;21.60;67.00;;;;;;4977501;28;1324;-71
2021/07/04 08:59:07;;;;;;;;;;;21.60;67.40;;;;;;4978119;28;1243;-72
2021/07/04 09:01:33;;;;;;;;;;;21.50;67.50;;;;;;4979857;28;1426;-72
2021/07/04 09:04:25;;;;;;;;;;;21.60;68.00;;;;;;4966761;28;1216;-72
2021/07/04 09:06:53;;;;;;;;;;;21.60;68.10;;;;;;4997200;28;1392;-71
2021/07/04 09:09:20;;;;;;;;;;;21.60;67.50;;;;;;4998409;28;1141;-72
2021/07/04 09:12:02;;;;;;;;;;;21.60;68.10;;;;;;4997899;28;1891;-72
2021/07/04 09:14:30;;;;;;;;;;;21.60;67.70;;;;;;4980791;28;1195;-72
2021/07/04 09:16:56;;;;;;;;;;;21.60;67.40;;;;;;4997329;28;1279;-72
2021/07/04 09:19:21;;;;;;;;;;;21.60;67.50;;;;;;4998587;28;1065;-72
2021/07/04 09:22:01;;;;;;;;;;;21.60;67.20;;;;;;4980185;28;1086;-72
2021/07/04 09:24:27;;;;;;;;;;;21.60;67.50;;;;;;4979224;28;1291;-72
2021/07/04 09:26:53;;;;;;;;;;;21.60;66.80;;;;;;4997320;28;1317;-71
2021/07/04 09:29:37;;;;;;;;;;;21.60;66.40;;;;;;4963924;28;1168;-71
2021/07/04 09:32:13;;;;;;;;;;;21.60;67.20;;;;;;4979981;28;1935;-71
2021/07/04 09:34:43;;;;;;;;;;;21.50;66.70;;;;;;4979955;28;1269;-72
2021/07/04 09:37:09;;;;;;;;;;;21.50;67.70;;;;;;4964611;28;1253;-72
2021/07/04 09:39:34;;;;;;;;;;;21.50;67.10;;;;;;4979786;28;1182;-72
2021/07/04 09:42:10;;;;;;;;;;;21.50;67.10;;;;;;4996145;28;1168;-72
2021/07/04 09:44:36;;;;;;;;;;;21.50;67.30;;;;;;4979973;28;1213;-71
2021/07/04 09:47:13;;;;;;;;;;;21.50;67.40;;;;;;4997804;28;1177;-72
2021/07/04 09:49:41;;;;;;;;;;;21.50;67.30;;;;;;4998141;28;1121;-72
2021/07/04 09:52:25;;;;;;;;;;;21.60;66.80;;;;;;4964711;28;1891;-72
2021/07/04 09:54:58;;;;;;;;;;;21.60;67.10;;;;;;4984442;28;1273;-72
2021/07/04 09:57:23;;;;;;;;;;;21.60;66.70;;;;;;4964461;28;1254;-71
2021/07/04 09:59:49;;;;;;;;;;;21.60;65.90;;;;;;4979823;28;1014;-72
2021/07/04 10:02:15;;;;;;;;;;;21.60;67.10;;;;;;4997255;28;1050;-72
2021/07/04 10:04:41;;;;;;;;;;;21.60;66.70;;;;;;4996534;28;1156;-72
2021/07/04 10:07:07;;;;;;;;;;;21.70;66.80;;;;;;4979663;28;1290;-72
2021/07/04 10:09:32;;;;;;;;;;;21.70;66.50;;;;;;4996304;28;1128;-72
2021/07/04 10:11:58;;;;;;;;;;;21.60;66.90;;;;;;4978951;28;1965;-72
2021/07/04 10:14:24;;;;;;;;;;;21.60;66.60;;;;;;4959038;28;1236;-72
2021/07/04 10:16:49;;;;;;;;;;;21.60;66.70;;;;;;4993514;28;1221;-71
2021/07/04 10:19:22;;;;;;;;;;;21.60;66.70;;;;;;4996776;28;1231;-72
2021/07/04 10:21:55;;;;;;;;;;;21.60;66.20;;;;;;4979048;28;1251;-71
2021/07/04 10:24:24;;;;;;;;;;;21.60;66.40;;;;;;4959348;28;1407;-72
2021/07/04 10:26:49;;;;;;;;;;;21.60;64.80;;;;;;4993337;28;1395;-72
2021/07/04 10:29:16;;;;;;;;;;;21.60;65.20;;;;;;4962414;28;1166;-72
2021/07/04 10:31:42;;;;;;;;;;;21.70;65.80;;;;;;4962532;28;1937;-72
2021/07/04 10:34:08;;;;;;;;;;;21.70;65.30;;;;;;4961848;28;1297;-72
2021/07/04 10:36:52;;;;;;;;;;;21.60;66.30;;;;;;4979868;28;1444;-71
2021/07/04 10:39:18;;;;;;;;;;;21.70;65.70;;;;;;4995589;28;1167;-72
2021/07/04 10:42:04;;;;;;;;;;;21.70;64.80;;;;;;4978989;28;1117;-72
2021/07/04 10:44:36;;;;;;;;;;;21.70;65.40;;;;;;4989120;28;1177;-71
2021/07/04 10:47:05;;;;;;;;;;;21.70;65.80;;;;;;4996535;28;1246;-72
2021/07/04 10:49:32;;;;;;;;;;;21.70;66.50;;;;;;4978555;28;1304;-71
2021/07/04 10:52:00;;;;;;;;;;;21.70;66.90;;;;;;4962086;28;1952;-71
2021/07/04 10:54:38;;;;;;;;;;;21.70;66.30;;;;;;4977683;28;1310;-72
2021/07/04 10:57:11;;;;;;;;;;;21.70;65.10;;;;;;4978380;28;1399;-71
2021/07/04 10:59:55;;;;;;;;;;;21.70;63.80;;;;;;4983543;28;1082;-72
2021/07/04 11:02:39;;;;;;;;;;;21.80;65.60;;;;;;4995581;28;1121;-72
2021/07/04 11:05:08;;;;;;;;;;;21.80;66.00;;;;;;4995291;28;1218;-72
2021/07/04 11:07:52;;;;;;;;;;;21.70;65.90;;;;;;4962026;28;1141;-72
2021/07/04 11:10:22;;;;;;;;;;;21.70;66.80;;;;;;4977684;28;1156;-71
2021/07/04 11:12:50;;;;;;;;;;;21.70;66.60;;;;;;4978007;28;1954;-71
2021/07/04 11:15:19;;;;;;;;;;;21.70;66.50;;;;;;4979021;28;1341;-72
2021/07/04 11:20:22;;;;;;;;;;;21.70;66.40;;;;;;4995604;28;1153;-72
2021/07/04 11:22:54;;;;;;;;;;;21.70;66.30;;;;;;4978000;28;1098;-72
2021/07/04 11:25:20;;;;;;;;;;;21.70;66.80;;;;;;4978535;28;1319;-72
2021/07/04 11:27:46;;;;;;;;;;;21.70;66.30;;;;;;4979225;28;1290;-72
2021/07/04 11:30:17;;;;;;;;;;;21.70;63.70;;;;;;4962420;28;1296;-72
2021/07/04 11:32:43;;;;;;;;;;;21.70;65.50;;;;;;4995036;28;1899;-72
2021/07/04 11:35:08;;;;;;;;;;;21.70;65.80;;;;;;4977596;28;1409;-72
2021/07/04 11:37:37;;;;;;;;;;;21.70;65.20;;;;;;4977361;28;1082;-71
2021/07/04 11:40:03;;;;;;;;;;;21.70;64.60;;;;;;4958403;28;1180;-72
2021/07/04 11:42:29;;;;;;;;;;;21.70;65.80;;;;;;4987479;28;1149;-71
2021/07/04 11:44:54;;;;;;;;;;;21.70;66.20;;;;;;4976934;28;1342;-72
2021/07/04 11:47:20;;;;;;;;;;;21.70;66.90;;;;;;4994877;28;1159;-72
2021/07/04 11:49:45;;;;;;;;;;;21.70;66.60;;;;;;4960610;28;1290;-72
2021/07/04 11:52:17;;;;;;;;;;;21.70;66.20;;;;;;4976027;28;1895;-72
2021/07/04 11:54:42;;;;;;;;;;;21.70;66.50;;;;;;4995569;28;1046;-72
2021/07/04 12:00:19;;;;;;;;;;;21.70;65.30;;;;;;4982362;28;991;-72
2021/07/04 12:02:47;;;;;;;;;;;21.70;64.70;;;;;;4989758;28;1205;-72
2021/07/04 12:05:13;;;;;;;;;;;21.70;66.20;;;;;;4992709;28;1281;-72
2021/07/04 12:07:39;;;;;;;;;;;21.70;66.30;;;;;;4959585;28;1643;-72
2021/07/04 12:10:05;;;;;;;;;;;21.70;65.80;;;;;;4959161;28;1285;-72
2021/07/04 12:12:31;;;;;;;;;;;21.70;65.90;;;;;;4977349;28;1930;-72
2021/07/04 12:15:03;;;;;;;;;;;21.70;65.70;;;;;;4959796;28;1287;-70
2021/07/04 12:17:36;;;;;;;;;;;21.70;66.50;;;;;;4975944;28;1209;-72
2021/07/04 12:20:06;;;;;;;;;;;21.60;66.00;;;;;;4976587;28;1047;-72
2021/07/04 12:22:36;;;;;;;;;;;21.70;63.50;;;;;;4959363;28;1289;-71
2021/07/04 12:25:04;;;;;;;;;;;21.70;63.60;;;;;;4992558;28;1292;-72
2021/07/04 12:27:36;;;;;;;;;;;21.70;65.80;;;;;;4992723;28;1113;-73
2021/07/04 12:30:15;;;;;;;;;;;21.70;66.30;;;;;;4975893;28;1367;-72
2021/07/04 12:32:45;;;;;;;;;;;21.70;64.80;;;;;;4962538;28;1899;-72
2021/07/04 12:35:18;;;;;;;;;;;21.70;64.80;;;;;;4980421;28;1217;-72
2021/07/04 12:37:43;;;;;;;;;;;21.80;64.90;;;;;;4963453;28;1901;-72
2021/07/04 12:40:28;;;;;;;;;;;21.80;65.70;;;;;;4979392;28;1102;-72
2021/07/04 12:43:07;;;;;;;;;;;21.70;65.70;;;;;;4994821;28;1106;-71
2021/07/04 12:45:32;;;;;;;;;;;21.80;65.70;;;;;;4961933;28;1299;-72
2021/07/04 12:47:58;;;;;;;;;;;21.80;65.50;;;;;;4995016;28;1350;-72
2021/07/04 12:50:24;;;;;;;;;;;21.80;66.40;;;;;;4977851;28;1105;-72
2021/07/04 12:52:53;;;;;;;;;;;21.80;65.80;;;;;;4977204;28;1957;-69
2021/07/04 12:55:35;;;;;;;;;;;21.80;62.60;;;;;;4995386;28;1288;-72
2021/07/04 12:58:20;;;;;;;;;;;21.90;62.30;;;;;;4977640;28;1093;-72
2021/07/04 13:00:45;;;;;;;;;;;21.90;63.40;;;;;;4995042;28;1157;-72
2021/07/04 13:03:11;;;;;;;;;;;21.90;64.70;;;;;;4976938;28;1276;-72
2021/07/04 13:05:37;;;;;;;;;;;21.90;65.20;;;;;;4977395;28;1485;-72
2021/07/04 13:08:09;;;;;;;;;;;21.90;64.80;;;;;;4993674;28;1074;-73
2021/07/04 13:10:35;;;;;;;;;;;21.90;64.80;;;;;;4977414;28;1432;-71
2021/07/04 13:13:10;;;;;;;;;;;21.90;64.30;;;;;;4976849;28;1940;-72
2021/07/04 13:15:39;;;;;;;;;;;21.90;64.50;;;;;;4994588;28;1229;-72
2021/07/04 13:18:04;;;;;;;;;;;21.90;64.80;;;;;;4961094;28;1240;-73
2021/07/04 13:20:30;;;;;;;;;;;21.90;65.50;;;;;;4993588;28;1117;-73
2021/07/04 13:22:57;;;;;;;;;;;21.90;66.00;;;;;;4960775;28;1495;-72
2021/07/04 13:25:23;;;;;;;;;;;21.90;65.90;;;;;;4994723;28;1508;-72
2021/07/04 13:27:58;;;;;;;;;;;21.90;64.00;;;;;;4974474;28;1133;-72
2021/07/04 13:30:23;;;;;;;;;;;21.90;65.10;;;;;;4983057;28;1083;-73
2021/07/04 13:32:57;;;;;;;;;;;21.90;66.00;;;;;;4976548;28;1965;-72
2021/07/04 13:35:35;;;;;;;;;;;21.90;66.50;;;;;;4961256;28;1732;-72
2021/07/04 13:38:27;;;;;;;;;;;21.90;66.90;;;;;;4994072;28;1101;-73
2021/07/04 13:40:53;;;;;;;;;;;21.90;67.30;;;;;;4990791;28;1111;-72
2021/07/04 13:43:19;;;;;;;;;;;21.80;67.20;;;;;;4994076;28;1144;-72
2021/07/04 13:45:53;;;;;;;;;;;21.80;67.60;;;;;;4976534;28;1189;-73
2021/07/04 13:48:20;;;;;;;;;;;21.80;67.80;;;;;;4977248;28;1117;-72
2021/07/04 13:50:46;;;;;;;;;;;21.80;65.80;;;;;;4976918;28;1125;-72
2021/07/04 13:53:12;;;;;;;;;;;21.80;65.60;;;;;;4992076;28;1956;-72
2021/07/04 13:55:38;;;;;;;;;;;21.80;66.60;;;;;;4963971;28;1269;-72
2021/07/04 13:58:04;;;;;;;;;;;21.80;66.90;;;;;;4994678;28;1057;-72
2021/07/04 14:00:29;;;;;;;;;;;21.80;66.80;;;;;;4976874;28;1171;-71
2021/07/04 14:02:56;;;;;;;;;;;21.80;67.10;;;;;;4956499;28;1279;-71
2021/07/04 14:05:22;;;;;;;;;;;21.80;67.10;;;;;;4976257;28;1367;-72
2021/07/04 14:07:47;;;;;;;;;;;21.80;66.10;;;;;;4993897;28;1141;-71
2021/07/04 14:10:13;;;;;;;;;;;21.80;66.20;;;;;;4960481;28;1455;-71
2021/07/04 14:12:39;;;;;;;;;;;21.70;66.90;;;;;;4976382;28;1895;-72
2021/07/04 14:15:05;;;;;;;;;;;21.80;66.80;;;;;;4959404;28;1510;-71
2021/07/04 14:17:31;;;;;;;;;;;21.70;67.10;;;;;;4976208;28;1058;-71
2021/07/04 14:19:57;;;;;;;;;;;21.80;66.70;;;;;;4959897;28;1233;-72
2021/07/04 14:22:23;;;;;;;;;;;21.80;66.70;;;;;;4992315;28;1472;-71
2021/07/04 14:24:49;;;;;;;;;;;21.70;66.70;;;;;;4976479;28;1426;-72
2021/07/04 14:27:14;;;;;;;;;;;21.70;66.50;;;;;;4993885;28;1148;-72
2021/07/04 14:29:40;;;;;;;;;;;21.80;66.10;;;;;;4976070;28;1161;-72
2021/07/04 14:32:05;;;;;;;;;;;21.80;65.60;;;;;;4959934;28;1899;-73
2021/07/04 14:34:31;;;;;;;;;;;21.80;65.10;;;;;;4993084;28;1042;-70
2021/07/04 14:36:56;;;;;;;;;;;21.80;65.10;;;;;;4992243;28;1314;-71